sensor_id;sensor_type;location;lat;lon;timestamp;temperature;humidity
8563;DHT22;16392;52.508;13.468;2023-06-22T00:00:59;20.60;1.00
8563;DHT22;16392;52.508;13.468;2023-06-22T00:03:26;20.60;1.00
8563;DHT22;16392;52.508;13.468;2023-06-22T00:05:53;20.60;96.00
8563;DHT22;16392;52.508;13.468;2023-06-22T00:08:20;20.60;99.90
8563;DHT22;16392;52.508;13.468;2023-06-22T00:10:46;20.60;99.90
8563;DHT22;16392;52.508;13.468;2023-06-22T00:13:14;20.60;99.90
8563;DHT22;16392;52.508;13.468;2023-06-22T00:15:42;20.60;99.90
8563;DHT22;16392;52.508;13.468;2023-06-22T00:18:10;20.60;99.90
8563;DHT22;16392;52.508;13.468;2023-06-22T00:20:37;20.60;99.90
8563;DHT22;16392;52.508;13.468;2023-06-22T00:23:05;20.50;99.90
8563;DHT22;16392;52.508;13.468;2023-06-22T00:25:33;20.50;1.00
8563;DHT22;16392;52.508;13.468;2023-06-22T00:28:00;20.50;1.00
8563;DHT22;16392;52.508;13.468;2023-06-22T00:30:28;20.40;99.90
8563;DHT22;16392;52.508;13.468;2023-06-22T00:32:55;20.40;99.90
8563;DHT22;16392;52.508;13.468;2023-06-22T00:35:21;20.40;99.90
8563;DHT22;16392;52.508;13.468;2023-06-22T00:37:48;20.40;1.00
8563;DHT22;16392;52.508;13.468;2023-06-22T00:40:16;20.30;1.00
8563;DHT22;16392;52.508;13.468;2023-06-22T00:42:47;20.20;1.00
8563;DHT22;16392;52.508;13.468;2023-06-22T00:45:13;20.20;99.90
8563;DHT22;16392;52.508;13.468;2023-06-22T00:47:42;20.20;99.90
8563;DHT22;16392;52.508;13.468;2023-06-22T00:50:12;20.20;1.00
8563;DHT22;16392;52.508;13.468;2023-06-22T00:52:44;20.10;1.00
8563;DHT22;16392;52.508;13.468;2023-06-22T00:55:12;20.00;99.90
8563;DHT22;16392;52.508;13.468;2023-06-22T00:57:43;19.90;99.90
8563;DHT22;16392;52.508;13.468;2023-06-22T01:00:11;19.90;1.00
8563;DHT22;16392;52.508;13.468;2023-06-22T01:02:46;19.80;1.00
8563;DHT22;16392;52.508;13.468;2023-06-22T01:05:17;19.80;99.90
8563;DHT22;16392;52.508;13.468;2023-06-22T01:07:55;19.80;99.90
8563;DHT22;16392;52.508;13.468;2023-06-22T01:10:28;19.80;99.90
8563;DHT22;16392;52.508;13.468;2023-06-22T01:13:00;19.70;1.00
8563;DHT22;16392;52.508;13.468;2023-06-22T01:15:31;19.60;1.00
8563;DHT22;16392;52.508;13.468;2023-06-22T01:18:04;19.60;1.00
8563;DHT22;16392;52.508;13.468;2023-06-22T01:20:31;19.60;99.90
8563;DHT22;16392;52.508;13.468;2023-06-22T01:23:07;19.50;99.90
8563;DHT22;16392;52.508;13.468;2023-06-22T01:25:43;19.60;99.90
8563;DHT22;16392;52.508;13.468;2023-06-22T01:28:24;19.70;99.90
8563;DHT22;16392;52.508;13.468;2023-06-22T01:30:53;19.70;99.90
8563;DHT22;16392;52.508;13.468;2023-06-22T01:33:31;19.70;99.90
8563;DHT22;16392;52.508;13.468;2023-06-22T01:36:00;19.70;99.90
8563;DHT22;16392;52.508;13.468;2023-06-22T01:38:28;19.70;99.90
8563;DHT22;16392;52.508;13.468;2023-06-22T01:40:56;19.60;99.90
8563;DHT22;16392;52.508;13.468;2023-06-22T01:43:24;19.60;99.90
8563;DHT22;16392;52.508;13.468;2023-06-22T01:45:53;19.50;99.90
8563;DHT22;16392;52.508;13.468;2023-06-22T01:48:20;19.60;99.90
8563;DHT22;16392;52.508;13.468;2023-06-22T01:50:47;19.60;99.90
8563;DHT22;16392;52.508;13.468;2023-06-22T01:53:14;19.60;99.90
8563;DHT22;16392;52.508;13.468;2023-06-22T01:55:41;19.60;99.90
8563;DHT22;16392;52.508;13.468;2023-06-22T01:58:07;19.60;99.90
8563;DHT22;16392;52.508;13.468;2023-06-22T02:00:37;19.50;99.90
8563;DHT22;16392;52.508;13.468;2023-06-22T02:03:11;19.50;99.90
8563;DHT22;16392;52.508;13.468;2023-06-22T02:05:48;19.50;99.90
8563;DHT22;16392;52.508;13.468;2023-06-22T02:08:17;19.50;99.90
8563;DHT22;16392;52.508;13.468;2023-06-22T02:10:46;19.60;99.90
8563;DHT22;16392;52.508;13.468;2023-06-22T02:13:14;19.60;99.90
8563;DHT22;16392;52.508;13.468;2023-06-22T02:15:42;19.70;99.90
8563;DHT22;16392;52.508;13.468;2023-06-22T02:18:10;19.70;99.90
8563;DHT22;16392;52.508;13.468;2023-06-22T02:20:37;19.70;99.90
8563;DHT22;16392;52.508;13.468;2023-06-22T02:23:04;19.70;99.90
8563;DHT22;16392;52.508;13.468;2023-06-22T02:25:31;19.70;99.90
8563;DHT22;16392;52.508;13.468;2023-06-22T02:27:58;19.70;99.90
8563;DHT22;16392;52.508;13.468;2023-06-22T02:30:25;19.70;99.90
8563;DHT22;16392;52.508;13.468;2023-06-22T02:32:52;19.70;99.90
8563;DHT22;16392;52.508;13.468;2023-06-22T02:35:25;19.60;99.90
8563;DHT22;16392;52.508;13.468;2023-06-22T02:37:52;19.60;99.90
8563;DHT22;16392;52.508;13.468;2023-06-22T02:40:19;19.60;99.90
8563;DHT22;16392;52.508;13.468;2023-06-22T02:42:46;19.50;99.90
8563;DHT22;16392;52.508;13.468;2023-06-22T02:45:13;19.50;99.90
8563;DHT22;16392;52.508;13.468;2023-06-22T02:47:39;19.50;99.90
8563;DHT22;16392;52.508;13.468;2023-06-22T02:50:06;19.60;99.90
8563;DHT22;16392;52.508;13.468;2023-06-22T02:52:34;19.70;99.90
8563;DHT22;16392;52.508;13.468;2023-06-22T02:55:01;19.70;99.90
8563;DHT22;16392;52.508;13.468;2023-06-22T02:57:29;19.80;99.90
8563;DHT22;16392;52.508;13.468;2023-06-22T02:59:56;19.90;99.90
8563;DHT22;16392;52.508;13.468;2023-06-22T03:02:22;19.90;99.90
8563;DHT22;16392;52.508;13.468;2023-06-22T03:04:50;20.00;99.90
8563;DHT22;16392;52.508;13.468;2023-06-22T03:07:19;20.00;99.90
8563;DHT22;16392;52.508;13.468;2023-06-22T03:09:47;20.00;99.90
8563;DHT22;16392;52.508;13.468;2023-06-22T03:12:13;20.00;99.90
8563;DHT22;16392;52.508;13.468;2023-06-22T03:14:40;20.00;99.90
8563;DHT22;16392;52.508;13.468;2023-06-22T03:17:06;20.00;99.90
8563;DHT22;16392;52.508;13.468;2023-06-22T03:19:33;20.10;99.90
8563;DHT22;16392;52.508;13.468;2023-06-22T03:22:00;20.00;99.90
8563;DHT22;16392;52.508;13.468;2023-06-22T03:24:27;20.10;99.90
8563;DHT22;16392;52.508;13.468;2023-06-22T03:26:56;20.30;99.90
8563;DHT22;16392;52.508;13.468;2023-06-22T03:29:23;20.40;99.90
8563;DHT22;16392;52.508;13.468;2023-06-22T03:31:50;20.40;99.90
8563;DHT22;16392;52.508;13.468;2023-06-22T03:34:17;20.40;99.90
8563;DHT22;16392;52.508;13.468;2023-06-22T03:36:44;20.40;99.90
8563;DHT22;16392;52.508;13.468;2023-06-22T03:39:12;20.50;99.90
8563;DHT22;16392;52.508;13.468;2023-06-22T03:41:39;20.50;99.90
8563;DHT22;16392;52.508;13.468;2023-06-22T03:44:07;20.50;99.90
8563;DHT22;16392;52.508;13.468;2023-06-22T03:46:36;20.60;99.90
8563;DHT22;16392;52.508;13.468;2023-06-22T03:49:02;20.80;99.90
8563;DHT22;16392;52.508;13.468;2023-06-22T03:51:29;20.90;99.90
8563;DHT22;16392;52.508;13.468;2023-06-22T03:53:56;21.00;99.90
8563;DHT22;16392;52.508;13.468;2023-06-22T03:56:22;21.00;99.90
8563;DHT22;16392;52.508;13.468;2023-06-22T03:58:49;21.10;99.90
8563;DHT22;16392;52.508;13.468;2023-06-22T04:01:18;21.20;99.90
8563;DHT22;16392;52.508;13.468;2023-06-22T04:03:44;21.30;99.90
8563;DHT22;16392;52.508;13.468;2023-06-22T04:06:13;21.40;99.90
8563;DHT22;16392;52.508;13.468;2023-06-22T04:08:40;21.50;99.90
8563;DHT22;16392;52.508;13.468;2023-06-22T04:11:07;21.50;99.90
8563;DHT22;16392;52.508;13.468;2023-06-22T04:13:34;21.60;99.90
8563;DHT22;16392;52.508;13.468;2023-06-22T04:16:00;21.50;99.90
8563;DHT22;16392;52.508;13.468;2023-06-22T04:18:28;21.70;99.90
8563;DHT22;16392;52.508;13.468;2023-06-22T04:20:55;21.80;99.90
8563;DHT22;16392;52.508;13.468;2023-06-22T04:23:22;21.80;99.90
8563;DHT22;16392;52.508;13.468;2023-06-22T04:25:49;21.70;99.90
8563;DHT22;16392;52.508;13.468;2023-06-22T04:28:18;21.70;99.90
8563;DHT22;16392;52.508;13.468;2023-06-22T04:30:45;21.80;99.90
8563;DHT22;16392;52.508;13.468;2023-06-22T04:33:13;21.70;99.90
8563;DHT22;16392;52.508;13.468;2023-06-22T04:35:41;21.90;99.90
8563;DHT22;16392;52.508;13.468;2023-06-22T04:38:08;22.00;99.90
8563;DHT22;16392;52.508;13.468;2023-06-22T04:40:35;22.30;99.90
8563;DHT22;16392;52.508;13.468;2023-06-22T04:43:02;22.40;1.00
8563;DHT22;16392;52.508;13.468;2023-06-22T04:45:29;22.60;1.00
8563;DHT22;16392;52.508;13.468;2023-06-22T04:47:55;23.00;1.00
8563;DHT22;16392;52.508;13.468;2023-06-22T04:50:22;23.30;99.90
8563;DHT22;16392;52.508;13.468;2023-06-22T04:52:50;23.70;1.00
8563;DHT22;16392;52.508;13.468;2023-06-22T04:55:19;23.90;1.00
8563;DHT22;16392;52.508;13.468;2023-06-22T04:57:46;23.90;99.90
8563;DHT22;16392;52.508;13.468;2023-06-22T05:00:15;23.80;99.90
8563;DHT22;16392;52.508;13.468;2023-06-22T05:02:43;24.00;1.00
8563;DHT22;16392;52.508;13.468;2023-06-22T05:05:10;24.50;99.90
8563;DHT22;16392;52.508;13.468;2023-06-22T05:07:39;24.60;1.00
8563;DHT22;16392;52.508;13.468;2023-06-22T05:10:10;24.70;1.00
8563;DHT22;16392;52.508;13.468;2023-06-22T05:12:38;24.30;1.00
8563;DHT22;16392;52.508;13.468;2023-06-22T05:15:05;24.40;1.00
8563;DHT22;16392;52.508;13.468;2023-06-22T05:17:32;24.40;1.00
8563;DHT22;16392;52.508;13.468;2023-06-22T05:19:59;24.40;1.00
8563;DHT22;16392;52.508;13.468;2023-06-22T05:22:26;24.90;99.90
8563;DHT22;16392;52.508;13.468;2023-06-22T05:24:53;25.10;99.90
8563;DHT22;16392;52.508;13.468;2023-06-22T05:27:21;24.90;1.00
8563;DHT22;16392;52.508;13.468;2023-06-22T05:29:48;24.60;1.00
8563;DHT22;16392;52.508;13.468;2023-06-22T05:32:15;24.30;1.00
8563;DHT22;16392;52.508;13.468;2023-06-22T05:34:42;23.90;1.00
8563;DHT22;16392;52.508;13.468;2023-06-22T05:37:08;23.30;1.00
8563;DHT22;16392;52.508;13.468;2023-06-22T05:39:36;23.70;99.90
8563;DHT22;16392;52.508;13.468;2023-06-22T05:42:05;24.30;99.90
8563;DHT22;16392;52.508;13.468;2023-06-22T05:44:33;24.20;1.00
8563;DHT22;16392;52.508;13.468;2023-06-22T05:47:00;23.90;99.90
8563;DHT22;16392;52.508;13.468;2023-06-22T05:49:26;23.70;1.00
8563;DHT22;16392;52.508;13.468;2023-06-22T05:51:55;23.70;1.00
8563;DHT22;16392;52.508;13.468;2023-06-22T05:54:22;23.50;1.00
8563;DHT22;16392;52.508;13.468;2023-06-22T05:56:48;23.30;1.00
8563;DHT22;16392;52.508;13.468;2023-06-22T05:59:15;23.30;1.00
8563;DHT22;16392;52.508;13.468;2023-06-22T06:01:43;23.20;99.90
8563;DHT22;16392;52.508;13.468;2023-06-22T06:04:10;23.00;1.00
8563;DHT22;16392;52.508;13.468;2023-06-22T06:06:36;23.00;99.90
8563;DHT22;16392;52.508;13.468;2023-06-22T06:09:03;23.10;62.90
8563;DHT22;16392;52.508;13.468;2023-06-22T06:11:30;23.20;1.00
8563;DHT22;16392;52.508;13.468;2023-06-22T06:13:57;23.50;99.90
8563;DHT22;16392;52.508;13.468;2023-06-22T06:16:23;23.70;1.00
8563;DHT22;16392;52.508;13.468;2023-06-22T06:18:51;24.10;1.00
8563;DHT22;16392;52.508;13.468;2023-06-22T06:21:20;24.80;1.00
8563;DHT22;16392;52.508;13.468;2023-06-22T06:23:46;25.50;99.90
8563;DHT22;16392;52.508;13.468;2023-06-22T06:26:13;25.60;1.00
8563;DHT22;16392;52.508;13.468;2023-06-22T06:28:42;25.60;1.00
8563;DHT22;16392;52.508;13.468;2023-06-22T06:31:08;25.50;1.00
8563;DHT22;16392;52.508;13.468;2023-06-22T06:33:35;25.40;1.00
8563;DHT22;16392;52.508;13.468;2023-06-22T06:36:03;25.40;1.00
8563;DHT22;16392;52.508;13.468;2023-06-22T06:38:29;25.70;99.90
8563;DHT22;16392;52.508;13.468;2023-06-22T06:40:56;25.90;1.00
8563;DHT22;16392;52.508;13.468;2023-06-22T06:43:23;26.30;99.90
8563;DHT22;16392;52.508;13.468;2023-06-22T06:45:50;26.20;1.00
8563;DHT22;16392;52.508;13.468;2023-06-22T06:48:16;26.60;99.90
8563;DHT22;16392;52.508;13.468;2023-06-22T06:50:43;27.40;99.90
8563;DHT22;16392;52.508;13.468;2023-06-22T06:53:11;27.30;1.00
8563;DHT22;16392;52.508;13.468;2023-06-22T06:55:38;26.30;55.30
8563;DHT22;16392;52.508;13.468;2023-06-22T06:58:04;26.20;99.90
8563;DHT22;16392;52.508;13.468;2023-06-22T07:00:33;25.80;99.90
8563;DHT22;16392;52.508;13.468;2023-06-22T07:03:01;26.00;99.90
8563;DHT22;16392;52.508;13.468;2023-06-22T07:05:28;26.40;99.90
8563;DHT22;16392;52.508;13.468;2023-06-22T07:07:55;26.50;1.00
8563;DHT22;16392;52.508;13.468;2023-06-22T07:10:23;26.50;1.00
8563;DHT22;16392;52.508;13.468;2023-06-22T07:12:49;26.20;1.00
8563;DHT22;16392;52.508;13.468;2023-06-22T07:15:16;25.70;1.00
8563;DHT22;16392;52.508;13.468;2023-06-22T07:17:43;25.50;99.90
8563;DHT22;16392;52.508;13.468;2023-06-22T07:20:10;26.20;1.00
8563;DHT22;16392;52.508;13.468;2023-06-22T07:22:39;27.00;1.00
8563;DHT22;16392;52.508;13.468;2023-06-22T07:25:07;27.00;1.00
8563;DHT22;16392;52.508;13.468;2023-06-22T07:27:38;27.70;99.90
8563;DHT22;16392;52.508;13.468;2023-06-22T07:30:09;28.60;1.00
8563;DHT22;16392;52.508;13.468;2023-06-22T07:32:36;28.80;1.00
8563;DHT22;16392;52.508;13.468;2023-06-22T07:35:03;28.80;1.00
8563;DHT22;16392;52.508;13.468;2023-06-22T07:37:30;28.40;1.00
8563;DHT22;16392;52.508;13.468;2023-06-22T07:39:58;28.30;1.00
8563;DHT22;16392;52.508;13.468;2023-06-22T07:42:25;28.20;1.00
8563;DHT22;16392;52.508;13.468;2023-06-22T07:44:53;27.60;1.00
8563;DHT22;16392;52.508;13.468;2023-06-22T07:47:20;26.90;1.00
8563;DHT22;16392;52.508;13.468;2023-06-22T07:49:50;26.00;1.00
8563;DHT22;16392;52.508;13.468;2023-06-22T07:52:17;25.80;1.00
8563;DHT22;16392;52.508;13.468;2023-06-22T07:54:44;25.80;1.00
8563;DHT22;16392;52.508;13.468;2023-06-22T07:57:10;26.30;1.00
8563;DHT22;16392;52.508;13.468;2023-06-22T07:59:37;27.00;1.00
8563;DHT22;16392;52.508;13.468;2023-06-22T08:02:05;27.30;1.00
8563;DHT22;16392;52.508;13.468;2023-06-22T08:04:34;27.20;99.90
8563;DHT22;16392;52.508;13.468;2023-06-22T08:07:00;26.60;99.90
8563;DHT22;16392;52.508;13.468;2023-06-22T08:09:28;26.30;1.00
8563;DHT22;16392;52.508;13.468;2023-06-22T08:11:55;26.50;1.00
8563;DHT22;16392;52.508;13.468;2023-06-22T08:14:22;26.50;1.00
8563;DHT22;16392;52.508;13.468;2023-06-22T08:16:49;26.40;1.00
8563;DHT22;16392;52.508;13.468;2023-06-22T08:19:18;26.40;1.00
8563;DHT22;16392;52.508;13.468;2023-06-22T08:21:45;26.40;1.00
8563;DHT22;16392;52.508;13.468;2023-06-22T08:24:19;26.50;1.00
8563;DHT22;16392;52.508;13.468;2023-06-22T08:26:46;26.50;1.00
8563;DHT22;16392;52.508;13.468;2023-06-22T08:29:13;26.50;1.00
8563;DHT22;16392;52.508;13.468;2023-06-22T08:31:40;26.50;1.00
8563;DHT22;16392;52.508;13.468;2023-06-22T08:34:07;26.30;1.00
8563;DHT22;16392;52.508;13.468;2023-06-22T08:36:35;26.20;1.00
8563;DHT22;16392;52.508;13.468;2023-06-22T08:39:10;26.20;1.00
8563;DHT22;16392;52.508;13.468;2023-06-22T08:41:36;26.20;1.00
8563;DHT22;16392;52.508;13.468;2023-06-22T08:44:03;26.30;1.00
8563;DHT22;16392;52.508;13.468;2023-06-22T08:46:31;26.50;1.00
8563;DHT22;16392;52.508;13.468;2023-06-22T08:48:59;26.60;1.00
8563;DHT22;16392;52.508;13.468;2023-06-22T08:51:26;27.00;1.00
8563;DHT22;16392;52.508;13.468;2023-06-22T08:53:54;27.00;1.00
8563;DHT22;16392;52.508;13.468;2023-06-22T08:56:20;27.20;1.00
8563;DHT22;16392;52.508;13.468;2023-06-22T08:58:47;27.60;1.00
8563;DHT22;16392;52.508;13.468;2023-06-22T09:01:14;27.30;1.00
8563;DHT22;16392;52.508;13.468;2023-06-22T09:03:41;26.90;1.00
8563;DHT22;16392;52.508;13.468;2023-06-22T09:06:07;27.00;1.00
8563;DHT22;16392;52.508;13.468;2023-06-22T09:08:34;27.50;1.00
8563;DHT22;16392;52.508;13.468;2023-06-22T09:11:03;29.10;99.90
8563;DHT22;16392;52.508;13.468;2023-06-22T09:13:30;30.10;99.90
8563;DHT22;16392;52.508;13.468;2023-06-22T09:15:58;29.60;99.90
8563;DHT22;16392;52.508;13.468;2023-06-22T09:18:25;28.50;99.90
8563;DHT22;16392;52.508;13.468;2023-06-22T09:20:52;28.60;99.90
8563;DHT22;16392;52.508;13.468;2023-06-22T09:23:19;29.10;99.90
8563;DHT22;16392;52.508;13.468;2023-06-22T09:25:46;28.00;99.90
8563;DHT22;16392;52.508;13.468;2023-06-22T09:28:14;27.70;99.90
8563;DHT22;16392;52.508;13.468;2023-06-22T09:30:43;27.40;99.90
8563;DHT22;16392;52.508;13.468;2023-06-22T09:33:09;27.20;99.90
8563;DHT22;16392;52.508;13.468;2023-06-22T09:35:37;27.40;99.90
8563;DHT22;16392;52.508;13.468;2023-06-22T09:38:04;27.40;99.90
8563;DHT22;16392;52.508;13.468;2023-06-22T09:40:31;27.40;99.90
8563;DHT22;16392;52.508;13.468;2023-06-22T09:43:01;27.80;99.90
8563;DHT22;16392;52.508;13.468;2023-06-22T09:45:30;28.10;99.90
8563;DHT22;16392;52.508;13.468;2023-06-22T09:47:57;28.30;99.90
8563;DHT22;16392;52.508;13.468;2023-06-22T09:50:23;28.50;99.90
8563;DHT22;16392;52.508;13.468;2023-06-22T09:52:50;28.20;99.90
8563;DHT22;16392;52.508;13.468;2023-06-22T09:55:20;28.10;99.90
8563;DHT22;16392;52.508;13.468;2023-06-22T09:57:46;28.00;99.90
8563;DHT22;16392;52.508;13.468;2023-06-22T10:00:14;28.30;99.90
8563;DHT22;16392;52.508;13.468;2023-06-22T10:02:43;28.60;99.90
8563;DHT22;16392;52.508;13.468;2023-06-22T10:05:10;28.60;99.90
8563;DHT22;16392;52.508;13.468;2023-06-22T10:07:36;28.70;99.90
8563;DHT22;16392;52.508;13.468;2023-06-22T10:10:08;28.70;99.90
8563;DHT22;16392;52.508;13.468;2023-06-22T10:12:35;28.40;99.90
8563;DHT22;16392;52.508;13.468;2023-06-22T10:15:02;28.50;99.90
8563;DHT22;16392;52.508;13.468;2023-06-22T10:17:28;28.30;99.90
8563;DHT22;16392;52.508;13.468;2023-06-22T10:19:56;28.50;99.90
8563;DHT22;16392;52.508;13.468;2023-06-22T10:22:23;28.50;99.90
8563;DHT22;16392;52.508;13.468;2023-06-22T10:24:49;29.30;99.90
8563;DHT22;16392;52.508;13.468;2023-06-22T10:27:16;29.60;99.90
8563;DHT22;16392;52.508;13.468;2023-06-22T10:29:44;29.60;99.90
8563;DHT22;16392;52.508;13.468;2023-06-22T10:32:10;29.60;99.90
8563;DHT22;16392;52.508;13.468;2023-06-22T10:34:37;30.20;96.90
8563;DHT22;16392;52.508;13.468;2023-06-22T10:37:05;29.60;99.90
8563;DHT22;16392;52.508;13.468;2023-06-22T10:39:38;29.60;99.90
8563;DHT22;16392;52.508;13.468;2023-06-22T10:42:05;29.80;91.80
8563;DHT22;16392;52.508;13.468;2023-06-22T10:44:32;29.80;86.00
8563;DHT22;16392;52.508;13.468;2023-06-22T10:46:58;29.50;56.60
8563;DHT22;16392;52.508;13.468;2023-06-22T10:49:25;30.10;73.00
8563;DHT22;16392;52.508;13.468;2023-06-22T10:51:54;30.10;37.80
8563;DHT22;16392;52.508;13.468;2023-06-22T10:54:21;30.20;48.20
8563;DHT22;16392;52.508;13.468;2023-06-22T10:56:48;30.00;10.40
8563;DHT22;16392;52.508;13.468;2023-06-22T10:59:15;30.20;5.50
8563;DHT22;16392;52.508;13.468;2023-06-22T11:01:42;30.30;1.00
8563;DHT22;16392;52.508;13.468;2023-06-22T11:04:09;30.50;1.00
8563;DHT22;16392;52.508;13.468;2023-06-22T11:06:35;30.80;1.00
8563;DHT22;16392;52.508;13.468;2023-06-22T11:09:02;30.20;1.00
8563;DHT22;16392;52.508;13.468;2023-06-22T11:11:31;29.60;1.00
8563;DHT22;16392;52.508;13.468;2023-06-22T11:13:57;29.70;1.00
8563;DHT22;16392;52.508;13.468;2023-06-22T11:16:24;29.90;1.00
8563;DHT22;16392;52.508;13.468;2023-06-22T11:18:50;30.00;1.00
8563;DHT22;16392;52.508;13.468;2023-06-22T11:21:17;29.80;1.00
8563;DHT22;16392;52.508;13.468;2023-06-22T11:23:45;30.10;1.00
8563;DHT22;16392;52.508;13.468;2023-06-22T11:26:11;30.10;1.00
8563;DHT22;16392;52.508;13.468;2023-06-22T11:28:39;29.60;1.00
8563;DHT22;16392;52.508;13.468;2023-06-22T11:31:06;29.40;1.00
8563;DHT22;16392;52.508;13.468;2023-06-22T11:33:33;29.50;1.00
8563;DHT22;16392;52.508;13.468;2023-06-22T11:35:59;30.10;1.00
8563;DHT22;16392;52.508;13.468;2023-06-22T11:38:26;29.80;1.00
8563;DHT22;16392;52.508;13.468;2023-06-22T11:40:52;29.10;1.00
8563;DHT22;16392;52.508;13.468;2023-06-22T11:43:19;29.10;1.00
8563;DHT22;16392;52.508;13.468;2023-06-22T11:45:47;29.40;1.00
8563;DHT22;16392;52.508;13.468;2023-06-22T11:48:14;29.60;1.00
8563;DHT22;16392;52.508;13.468;2023-06-22T11:50:40;30.40;1.00
8563;DHT22;16392;52.508;13.468;2023-06-22T11:53:07;30.30;1.00
8563;DHT22;16392;52.508;13.468;2023-06-22T11:55:34;30.20;1.00
8563;DHT22;16392;52.508;13.468;2023-06-22T11:58:01;29.80;1.00
8563;DHT22;16392;52.508;13.468;2023-06-22T12:00:30;29.70;1.00
8563;DHT22;16392;52.508;13.468;2023-06-22T12:02:58;30.10;1.00
8563;DHT22;16392;52.508;13.468;2023-06-22T12:05:25;30.50;1.00
8563;DHT22;16392;52.508;13.468;2023-06-22T12:07:53;31.30;1.00
8563;DHT22;16392;52.508;13.468;2023-06-22T12:10:20;31.80;1.00
8563;DHT22;16392;52.508;13.468;2023-06-22T12:12:47;31.70;1.00
8563;DHT22;16392;52.508;13.468;2023-06-22T12:15:13;30.90;1.00
8563;DHT22;16392;52.508;13.468;2023-06-22T12:17:40;30.30;1.00
8563;DHT22;16392;52.508;13.468;2023-06-22T12:20:09;30.50;1.00
8563;DHT22;16392;52.508;13.468;2023-06-22T12:22:36;30.10;1.00
8563;DHT22;16392;52.508;13.468;2023-06-22T12:25:04;30.40;1.00
8563;DHT22;16392;52.508;13.468;2023-06-22T12:27:31;31.40;1.00
8563;DHT22;16392;52.508;13.468;2023-06-22T12:29:57;31.80;1.00
8563;DHT22;16392;52.508;13.468;2023-06-22T12:32:24;31.50;1.00
8563;DHT22;16392;52.508;13.468;2023-06-22T12:34:51;31.30;1.00
8563;DHT22;16392;52.508;13.468;2023-06-22T12:37:21;30.60;1.00
8563;DHT22;16392;52.508;13.468;2023-06-22T12:39:47;30.20;1.00
8563;DHT22;16392;52.508;13.468;2023-06-22T12:42:14;29.60;1.00
8563;DHT22;16392;52.508;13.468;2023-06-22T12:44:42;29.80;1.00
8563;DHT22;16392;52.508;13.468;2023-06-22T12:47:09;29.60;1.00
8563;DHT22;16392;52.508;13.468;2023-06-22T12:49:36;30.00;1.00
8563;DHT22;16392;52.508;13.468;2023-06-22T12:52:04;30.80;1.00
8563;DHT22;16392;52.508;13.468;2023-06-22T12:54:36;31.00;1.00
8563;DHT22;16392;52.508;13.468;2023-06-22T12:57:03;30.80;1.00
8563;DHT22;16392;52.508;13.468;2023-06-22T12:59:29;30.50;1.00
8563;DHT22;16392;52.508;13.468;2023-06-22T13:01:56;30.20;1.00
8563;DHT22;16392;52.508;13.468;2023-06-22T13:04:22;30.20;1.00
8563;DHT22;16392;52.508;13.468;2023-06-22T13:06:49;30.00;1.00
8563;DHT22;16392;52.508;13.468;2023-06-22T13:09:17;30.00;1.00
8563;DHT22;16392;52.508;13.468;2023-06-22T13:11:53;30.20;1.00
8563;DHT22;16392;52.508;13.468;2023-06-22T13:14:20;30.80;1.00
8563;DHT22;16392;52.508;13.468;2023-06-22T13:16:48;31.00;1.00
8563;DHT22;16392;52.508;13.468;2023-06-22T13:19:14;31.00;1.00
8563;DHT22;16392;52.508;13.468;2023-06-22T13:21:41;31.50;1.00
8563;DHT22;16392;52.508;13.468;2023-06-22T13:24:08;31.60;1.00
8563;DHT22;16392;52.508;13.468;2023-06-22T13:26:35;31.60;1.00
8563;DHT22;16392;52.508;13.468;2023-06-22T13:29:02;31.70;1.00
8563;DHT22;16392;52.508;13.468;2023-06-22T13:31:29;31.50;1.00
8563;DHT22;16392;52.508;13.468;2023-06-22T13:33:56;31.50;1.00
8563;DHT22;16392;52.508;13.468;2023-06-22T13:36:22;31.80;1.00
8563;DHT22;16392;52.508;13.468;2023-06-22T13:38:50;31.50;1.00
8563;DHT22;16392;52.508;13.468;2023-06-22T13:41:17;31.50;1.00
8563;DHT22;16392;52.508;13.468;2023-06-22T13:43:44;31.30;1.00
8563;DHT22;16392;52.508;13.468;2023-06-22T13:46:11;30.60;1.00
8563;DHT22;16392;52.508;13.468;2023-06-22T13:48:38;30.40;1.00
8563;DHT22;16392;52.508;13.468;2023-06-22T13:51:04;30.40;1.00
8563;DHT22;16392;52.508;13.468;2023-06-22T13:53:31;30.50;1.00
8563;DHT22;16392;52.508;13.468;2023-06-22T13:55:58;31.00;1.00
8563;DHT22;16392;52.508;13.468;2023-06-22T13:58:24;30.60;1.00
8563;DHT22;16392;52.508;13.468;2023-06-22T14:00:51;30.50;1.00
8563;DHT22;16392;52.508;13.468;2023-06-22T14:03:19;30.50;1.00
8563;DHT22;16392;52.508;13.468;2023-06-22T14:05:45;30.80;1.00
8563;DHT22;16392;52.508;13.468;2023-06-22T14:08:12;30.60;1.00
8563;DHT22;16392;52.508;13.468;2023-06-22T14:10:40;30.40;1.00
8563;DHT22;16392;52.508;13.468;2023-06-22T14:13:06;30.50;1.00
8563;DHT22;16392;52.508;13.468;2023-06-22T14:15:33;30.50;1.00
8563;DHT22;16392;52.508;13.468;2023-06-22T14:17:59;31.00;1.00
8563;DHT22;16392;52.508;13.468;2023-06-22T14:20:28;30.60;1.00
8563;DHT22;16392;52.508;13.468;2023-06-22T14:22:56;30.80;1.00
8563;DHT22;16392;52.508;13.468;2023-06-22T14:25:23;30.70;1.00
8563;DHT22;16392;52.508;13.468;2023-06-22T14:27:49;30.90;1.00
8563;DHT22;16392;52.508;13.468;2023-06-22T14:30:16;31.00;1.00
8563;DHT22;16392;52.508;13.468;2023-06-22T14:32:43;31.00;1.00
8563;DHT22;16392;52.508;13.468;2023-06-22T14:35:10;31.00;1.00
8563;DHT22;16392;52.508;13.468;2023-06-22T14:37:38;30.80;1.00
8563;DHT22;16392;52.508;13.468;2023-06-22T14:40:06;30.90;1.00
8563;DHT22;16392;52.508;13.468;2023-06-22T14:42:33;31.00;1.00
8563;DHT22;16392;52.508;13.468;2023-06-22T14:44:59;30.50;1.00
8563;DHT22;16392;52.508;13.468;2023-06-22T14:47:26;30.20;1.00
8563;DHT22;16392;52.508;13.468;2023-06-22T14:49:53;30.10;1.00
8563;DHT22;16392;52.508;13.468;2023-06-22T14:52:20;30.30;1.00
8563;DHT22;16392;52.508;13.468;2023-06-22T14:54:48;29.80;1.00
8563;DHT22;16392;52.508;13.468;2023-06-22T14:57:16;29.40;1.00
8563;DHT22;16392;52.508;13.468;2023-06-22T14:59:45;29.20;1.00
8563;DHT22;16392;52.508;13.468;2023-06-22T15:02:12;28.90;1.00
8563;DHT22;16392;52.508;13.468;2023-06-22T15:04:38;28.80;1.00
8563;DHT22;16392;52.508;13.468;2023-06-22T15:07:05;28.90;1.00
8563;DHT22;16392;52.508;13.468;2023-06-22T15:09:32;29.10;1.00
8563;DHT22;16392;52.508;13.468;2023-06-22T15:12:00;29.20;1.00
8563;DHT22;16392;52.508;13.468;2023-06-22T15:14:31;29.30;1.00
8563;DHT22;16392;52.508;13.468;2023-06-22T15:16:57;28.90;1.00
8563;DHT22;16392;52.508;13.468;2023-06-22T15:19:24;28.70;1.00
8563;DHT22;16392;52.508;13.468;2023-06-22T15:21:51;28.70;1.00
8563;DHT22;16392;52.508;13.468;2023-06-22T15:24:17;28.60;1.00
8563;DHT22;16392;52.508;13.468;2023-06-22T15:26:44;28.70;1.00
8563;DHT22;16392;52.508;13.468;2023-06-22T15:29:12;28.70;1.80
8563;DHT22;16392;52.508;13.468;2023-06-22T15:31:38;28.70;1.00
8563;DHT22;16392;52.508;13.468;2023-06-22T15:34:06;28.60;12.50
8563;DHT22;16392;52.508;13.468;2023-06-22T15:36:34;28.60;20.40
8563;DHT22;16392;52.508;13.468;2023-06-22T15:39:10;28.60;27.60
8563;DHT22;16392;52.508;13.468;2023-06-22T15:41:39;28.60;32.30